Aérodrome :
LOGIN :

S'inscrire | Disclaimer

   EN    FR    IT 

 










Légende :    VFR   VFR Marginal   IFR   IFR Intensif   IFR Très Intensif
Visi : 
Plafond : 
>= 8 km
>= 3000ft
5 à 8 km
1000 à 3000 ft
1500m à 5 km
500 à 1000 ft
800 à 1500m
200 à 500 ft
< 800m
< 200 ft
Symboles :   Orages  Brouillard  Fortes neiges  Fortes précipitations  Vent > 20 kt
SIGMETs :   Divers  Orages  Givrage  Turbulence  Onde Orograph.  Cendres Volcan.







- Altitude de l'aérodrome : 600 ft
- Code IATA : VIE


LOWW - Vienna Schwechat

DERNIER METAR :
  • 151250Z 16011KT CAVOK 17/06 Q1021 NOSIG

METARs EXPIRÉS :
  • 151220Z 15013KT CAVOK 18/06 Q1021 NOSIG
  • 151150Z 15016KT CAVOK 18/05 Q1021 NOSIG
  • 151120Z 14013KT CAVOK 17/05 Q1022 NOSIG
  • 151050Z 15013KT 110V170 CAVOK 17/05 Q1022 NOSIG
  • 151020Z 14012KT CAVOK 17/05 Q1022 NOSIG

TAF TAF LOWW
Valide du 15 à 12h jusqu'au 16 à 18h UTC


151115Z 1512/1618 15010KT CAVOK TX19/1514Z TN12/1602Z
TEMPO 1512/1516 15017G27KT
TEMPO 1609/1616 14015KT
Pas de NOTAMs connus pour ce terrain.
1 SIGMET publié pour la FIR Wien (LOVV) :
 
Onde orographique forte
LOVV SIGMET 4 VALID 151300/151500 LOWW
LOVV WIEN FIR SEV MTW FCST WI N4825 E01335 - N4830 E01555 - N4755 E01600 - N4730 E01325 - N4825 E01335 FL330/390 STNR WKN=



MET'MAP, la Météo Aéronautique d'un coup d'oeil ! - Copyright ORBIFLY Décembre 2007 - Disclaimer

ORBIFLY MET'MAP TEAM :

Programmation & Développement : Alexandra Zaïnal
Conception & Développement : Baudouin d'Aumeries
Co-Programmation & Développement : Marc-Olivier Méhu
Soutien technique & logistique : Manuel Goepfert

Contact : metmap@orbifly.com




SOURCES & CREDITS :

   NOAA